createdAt,value
2019-01-25T00:02:12.765Z,42.77
2019-01-25T00:07:17.132Z,47.13
2019-01-25T00:12:21.531Z,46.40
2019-01-25T00:17:26.080Z,44.47
2019-01-25T00:22:30.482Z,43.50
2019-01-25T00:27:34.891Z,43.37
2019-01-25T00:32:39.387Z,46.00
2019-01-25T00:37:43.842Z,45.77
2019-01-25T00:42:48.217Z,44.27
2019-01-25T00:47:52.704Z,42.10
2019-01-25T00:52:57.153Z,42.23
2019-01-25T00:58:01.601Z,45.90
2019-01-25T01:03:06.710Z,43.20
2019-01-25T01:08:11.093Z,46.33
2019-01-25T01:13:15.485Z,45.13
2019-01-25T01:18:19.829Z,45.60
2019-01-25T01:23:24.229Z,44.37
2019-01-25T01:28:28.631Z,46.00
2019-01-25T01:33:33.006Z,45.23
2019-01-25T01:38:37.397Z,44.27
2019-01-25T01:43:41.729Z,45.10
2019-01-25T01:48:46.145Z,46.43
2019-01-25T01:53:50.608Z,43.60
2019-01-25T01:58:55.004Z,44.87
2019-01-25T02:03:59.586Z,45.57
2019-01-25T02:09:05.242Z,49.07
2019-01-25T02:14:09.792Z,44.00
2019-01-25T02:19:14.173Z,41.27
2019-01-25T02:24:18.555Z,46.23
2019-01-25T02:29:22.901Z,43.23
2019-01-25T02:34:27.380Z,49.00
2019-01-25T02:39:31.807Z,44.13
2019-01-25T02:44:36.228Z,49.13
2019-01-25T02:49:40.607Z,48.63
2019-01-25T02:54:44.990Z,42.20
2019-01-25T02:59:49.409Z,46.43
2019-01-25T03:04:53.786Z,44.83
2019-01-25T03:09:58.212Z,47.27
2019-01-25T03:15:02.613Z,43.83
2019-01-25T03:20:09.337Z,44.67
2019-01-25T03:25:19.107Z,45.33
2019-01-25T03:30:25.484Z,44.80
2019-01-25T03:35:29.841Z,46.37
2019-01-25T03:40:34.200Z,48.57
2019-01-25T03:45:39.558Z,46.23
2019-01-25T03:50:43.870Z,47.05
2019-01-25T03:55:48.288Z,44.83
2019-01-25T04:00:52.648Z,43.80
2019-01-25T04:05:57.037Z,45.10
2019-01-25T04:11:03.906Z,43.40
2019-01-25T04:16:07.496Z,42.27
2019-01-25T04:21:11.917Z,46.53
2019-01-25T04:26:16.287Z,48.07
2019-01-25T04:31:20.890Z,47.43
2019-01-25T04:36:25.279Z,49.97
2019-01-25T04:41:29.652Z,48.57
2019-01-25T04:46:34.001Z,46.43
2019-01-25T04:51:38.352Z,46.73
2019-01-25T04:56:42.739Z,49.60
2019-01-25T05:01:47.130Z,52.20
2019-01-25T05:06:51.556Z,50.30
2019-01-25T05:11:55.906Z,49.27
2019-01-25T05:17:00.276Z,51.93
2019-01-25T05:22:04.646Z,48.57
2019-01-25T05:27:09.089Z,47.43
2019-01-25T05:32:15.541Z,53.60
2019-01-25T05:37:19.551Z,49.33
2019-01-25T05:42:23.901Z,49.63
2019-01-25T05:47:28.262Z,52.70
2019-01-25T05:52:32.642Z,49.50
2019-01-25T05:57:37.031Z,51.50
2019-01-25T06:02:41.480Z,49.40
2019-01-25T06:07:45.851Z,55.90
2019-01-25T06:12:54.636Z,49.83
2019-01-25T06:18:01.253Z,60.90
2019-01-25T06:23:05.647Z,53.77
2019-01-25T06:28:10.198Z,49.37
2019-01-25T06:33:14.541Z,55.20
2019-01-25T06:38:18.918Z,55.60
2019-01-25T06:43:23.354Z,54.60
2019-01-25T06:48:27.791Z,55.43
2019-01-25T06:53:32.168Z,54.83
2019-01-25T06:58:38.160Z,53.73
2019-01-25T07:03:42.536Z,56.13
2019-01-25T07:08:46.923Z,56.70
2019-01-25T07:13:51.308Z,53.80
2019-01-25T07:18:55.648Z,55.57
2019-01-25T07:23:59.994Z,58.90
2019-01-25T07:29:05.162Z,58.08
2019-01-25T07:34:10.750Z,62.03
2019-01-25T07:39:18.513Z,57.97
2019-01-25T07:44:22.957Z,54.83
2019-01-25T07:49:28.430Z,51.43
2019-01-25T07:54:32.888Z,52.87
2019-01-25T07:59:37.271Z,65.37
2019-01-25T08:04:41.635Z,60.80
2019-01-25T08:09:47.056Z,56.23
2019-01-25T08:14:51.437Z,53.47
2019-01-25T08:19:55.893Z,57.07
2019-01-25T08:25:00.736Z,59.80
2019-01-25T08:30:19.884Z,56.13
2019-01-25T08:35:24.302Z,56.50
2019-01-25T08:40:28.706Z,57.73
2019-01-25T08:45:33.140Z,58.07
2019-01-25T08:50:37.698Z,54.43
2019-01-25T08:55:42.555Z,56.93
2019-01-25T09:00:46.938Z,54.60
2019-01-25T09:05:51.331Z,54.53
2019-01-25T09:10:55.830Z,54.83
2019-01-25T09:16:00.362Z,56.55
2019-01-25T09:21:04.831Z,59.90
2019-01-25T09:26:09.213Z,54.50
2019-01-25T09:31:13.576Z,55.77
2019-01-25T09:36:17.941Z,49.23
2019-01-25T09:41:24.243Z,47.97
2019-01-25T09:46:30.165Z,45.40
2019-01-25T09:51:34.845Z,45.87
2019-01-25T09:56:39.214Z,45.47
2019-01-25T10:01:43.609Z,44.17
2019-01-25T10:06:48.755Z,46.03
2019-01-25T10:11:53.142Z,43.20
2019-01-25T10:16:57.508Z,42.90
2019-01-25T10:22:02.060Z,47.93
2019-01-25T10:27:06.487Z,34.87
2019-01-25T10:32:10.841Z,38.43
2019-01-25T10:37:15.210Z,41.73
2019-01-25T10:42:19.578Z,38.03
2019-01-25T10:47:23.942Z,39.80
2019-01-25T10:52:28.331Z,37.93
2019-01-25T10:57:32.709Z,35.27
2019-01-25T11:02:37.065Z,39.27
2019-01-25T11:07:41.452Z,36.77
2019-01-25T11:12:45.927Z,41.13
2019-01-25T11:17:50.763Z,41.35
2019-01-25T11:22:55.318Z,42.77
2019-01-25T11:27:59.700Z,41.30
2019-01-25T11:33:04.496Z,39.73
2019-01-25T11:38:08.940Z,44.93
2019-01-25T11:43:13.323Z,40.43
2019-01-25T11:48:17.696Z,39.37
2019-01-25T11:53:22.051Z,41.33
2019-01-25T11:58:26.465Z,37.50
2019-01-25T12:03:30.828Z,41.27
2019-01-25T12:08:35.285Z,38.50
2019-01-25T12:13:39.693Z,36.37
2019-01-25T12:18:44.101Z,35.60
2019-01-25T12:23:48.462Z,36.37
2019-01-25T12:28:53.630Z,38.07
2019-01-25T12:33:58.004Z,35.10
2019-01-25T12:39:02.361Z,37.03
2019-01-25T12:44:08.429Z,38.20
2019-01-25T12:49:12.785Z,35.77
2019-01-25T12:54:17.174Z,32.40
2019-01-25T12:59:21.540Z,33.40
2019-01-25T13:04:25.917Z,46.13
2019-01-25T13:09:30.310Z,31.43
2019-01-25T13:14:34.819Z,33.05
2019-01-25T13:19:39.175Z,33.27
2019-01-25T13:24:43.535Z,30.10
2019-01-25T13:29:48.595Z,36.85
2019-01-25T13:34:53.026Z,35.43
2019-01-25T13:39:57.429Z,35.13
2019-01-25T13:45:01.786Z,38.83
2019-01-25T13:50:09.771Z,37.63
2019-01-25T13:55:16.074Z,35.97
2019-01-25T14:00:28.323Z,33.87
2019-01-25T14:05:32.804Z,31.13
2019-01-25T14:10:37.627Z,34.70
2019-01-25T14:15:41.992Z,34.70
2019-01-25T14:20:46.369Z,35.13
2019-01-25T14:25:50.774Z,36.50
2019-01-25T14:30:55.139Z,41.27
2019-01-25T14:35:59.646Z,40.23
2019-01-25T14:41:04.170Z,42.03
2019-01-25T14:46:08.556Z,42.30
2019-01-25T14:51:13.501Z,46.07
2019-01-25T14:56:18.003Z,44.07
2019-01-25T15:01:22.390Z,47.77
2019-01-25T15:06:27.016Z,45.00
2019-01-25T15:11:31.403Z,48.43
2019-01-25T15:16:35.761Z,48.87
2019-01-25T15:21:40.140Z,52.63
2019-01-25T15:26:44.495Z,57.37
2019-01-25T15:31:48.872Z,55.47
2019-01-25T15:36:53.232Z,51.90
2019-01-25T15:41:57.607Z,54.83
2019-01-25T15:47:02.108Z,54.27
2019-01-25T15:52:06.436Z,54.27
2019-01-25T15:57:10.839Z,55.67
2019-01-25T16:02:15.236Z,56.00
2019-01-25T16:07:19.616Z,56.40
2019-01-25T16:12:24.092Z,55.33
2019-01-25T16:17:28.618Z,50.27
2019-01-25T16:22:32.989Z,56.97
2019-01-25T16:27:37.464Z,55.17
2019-01-25T16:32:41.798Z,54.97
2019-01-25T16:37:46.166Z,53.30
2019-01-25T16:42:50.567Z,54.60
2019-01-25T16:47:55.071Z,55.13
2019-01-25T16:52:59.888Z,55.50
2019-01-25T16:58:04.528Z,60.10
2019-01-25T17:03:09.145Z,59.20
2019-01-25T17:08:14.580Z,55.63
2019-01-25T17:13:19.196Z,60.90
2019-01-25T17:18:23.586Z,57.17
2019-01-25T17:23:27.970Z,61.23
2019-01-25T17:28:32.351Z,62.83
2019-01-25T17:33:36.857Z,60.43
2019-01-25T17:38:41.272Z,64.73
2019-01-25T17:43:45.699Z,65.53
2019-01-25T17:48:50.112Z,57.27
2019-01-25T17:53:54.478Z,57.17
2019-01-25T17:58:58.834Z,54.77
2019-01-25T18:04:03.188Z,54.97
2019-01-25T18:09:07.978Z,41.80
2019-01-25T18:14:13.244Z,40.03
2019-01-25T18:19:17.632Z,36.80
2019-01-25T18:24:22.075Z,34.17
2019-01-25T18:29:26.809Z,37.43
2019-01-25T18:34:31.231Z,26.70
2019-01-25T18:39:35.596Z,29.10
2019-01-25T18:44:39.949Z,27.00
2019-01-25T18:49:44.294Z,25.97
2019-01-25T18:54:48.661Z,27.63
2019-01-25T18:59:53.168Z,28.70
2019-01-25T19:04:57.577Z,27.87
2019-01-25T19:10:01.974Z,30.93
2019-01-25T19:15:09.695Z,28.53
2019-01-25T19:20:14.979Z,29.17
2019-01-25T19:25:19.412Z,28.07
2019-01-25T19:30:26.148Z,27.30
2019-01-25T19:35:30.610Z,27.10
2019-01-25T19:40:36.230Z,28.53
2019-01-25T19:45:40.751Z,30.53
2019-01-25T19:50:45.251Z,27.82
2019-01-25T19:55:49.630Z,28.33
2019-01-25T20:00:54.024Z,27.57
2019-01-25T20:05:58.922Z,28.33
2019-01-25T20:11:03.838Z,28.95
2019-01-25T20:16:09.715Z,30.40
2019-01-25T20:21:14.832Z,32.40
2019-01-25T20:26:19.674Z,29.63
2019-01-25T20:31:26.066Z,32.07
2019-01-25T20:36:31.220Z,32.30
2019-01-25T20:41:35.922Z,30.33
2019-01-25T20:46:41.038Z,25.87
2019-01-25T20:51:47.428Z,28.70
2019-01-25T20:56:52.556Z,29.10
2019-01-25T21:01:58.403Z,29.60
2019-01-25T21:07:03.055Z,31.53
2019-01-25T21:12:09.340Z,30.33
2019-01-25T21:17:14.037Z,27.15
2019-01-25T21:22:18.890Z,30.93
2019-01-25T21:27:23.793Z,35.37
2019-01-25T21:32:29.095Z,31.43
2019-01-25T21:37:34.612Z,29.87
2019-01-25T21:42:39.243Z,32.23
2019-01-25T21:47:43.625Z,30.90
2019-01-25T21:52:48.279Z,32.47
2019-01-25T21:57:53.769Z,31.47
2019-01-25T22:02:58.127Z,33.17
2019-01-25T22:08:02.593Z,29.30
2019-01-25T22:13:07.314Z,32.17
2019-01-25T22:18:11.975Z,29.73
2019-01-25T22:23:17.101Z,30.20
2019-01-25T22:28:21.605Z,30.67
2019-01-25T22:33:25.965Z,32.00
2019-01-25T22:38:30.321Z,32.27
2019-01-25T22:43:34.716Z,29.63
2019-01-25T22:48:39.124Z,31.27
2019-01-25T22:53:43.578Z,28.53
2019-01-25T22:58:47.934Z,33.37
2019-01-25T23:04:01.245Z,26.40
2019-01-25T23:09:17.975Z,30.30
2019-01-25T23:14:23.328Z,29.47
2019-01-25T23:19:27.877Z,31.57
2019-01-25T23:24:32.249Z,30.20
2019-01-25T23:29:36.623Z,29.60
2019-01-25T23:34:40.967Z,31.43
2019-01-25T23:39:45.368Z,29.10
2019-01-25T23:44:49.779Z,28.53
2019-01-25T23:49:54.128Z,31.47
2019-01-25T23:54:58.471Z,25.73
